createdAt,value
2023-02-28T00:01:11.356Z,99047.81
2023-02-28T00:03:39.171Z,99041.97
2023-02-28T00:06:09.866Z,99037.53
2023-02-28T00:08:39.017Z,99041.19
2023-02-28T00:11:09.085Z,99047.94
2023-02-28T00:13:38.829Z,99045.25
2023-02-28T00:16:09.364Z,99032.19
2023-02-28T00:18:37.584Z,99042.81
2023-02-28T00:21:06.207Z,99036.81
2023-02-28T00:23:34.252Z,99032.59
2023-02-28T00:26:03.464Z,99041.19
2023-02-28T00:28:31.439Z,99028.50
2023-02-28T00:31:00.974Z,99026.84
2023-02-28T00:33:28.995Z,99042.47
2023-02-28T00:36:04.817Z,99039.56
2023-02-28T00:38:32.617Z,99047.19
2023-02-28T00:41:05.374Z,99039.75
2023-02-28T00:43:36.115Z,99039.34
2023-02-28T00:46:04.252Z,99045.50
2023-02-28T00:48:32.885Z,99036.97
2023-02-28T00:51:00.878Z,99030.97
2023-02-28T00:53:28.567Z,99035.50
2023-02-28T00:55:56.270Z,99029.84
2023-02-28T00:58:23.958Z,99032.59
2023-02-28T01:00:53.739Z,99027.72
2023-02-28T01:03:23.395Z,99026.66
2023-02-28T01:05:51.240Z,99035.75
2023-02-28T01:08:19.058Z,99019.47
2023-02-28T01:10:46.740Z,99020.75
2023-02-28T01:13:15.582Z,99024.16
2023-02-28T01:15:47.412Z,99016.53
2023-02-28T01:18:16.499Z,99016.84
2023-02-28T01:20:44.213Z,99015.41
2023-02-28T01:23:11.935Z,99017.91
2023-02-28T01:25:39.992Z,99018.25
2023-02-28T01:28:08.306Z,99016.53
2023-02-28T01:30:36.725Z,99019.13
2023-02-28T01:33:04.573Z,99001.53
2023-02-28T01:35:36.102Z,99011.66
2023-02-28T01:38:20.572Z,99007.81
2023-02-28T01:40:49.244Z,99006.84
2023-02-28T01:43:23.025Z,99015.34
2023-02-28T01:45:50.818Z,98995.59
2023-02-28T01:48:19.692Z,99000.97
2023-02-28T01:50:50.246Z,99001.47
2023-02-28T01:53:21.451Z,99008.13
2023-02-28T01:55:52.038Z,99009.91
2023-02-28T01:58:20.299Z,99001.31
2023-02-28T02:00:48.861Z,98990.69
2023-02-28T02:03:20.873Z,99001.31
2023-02-28T02:05:50.257Z,98998.06
2023-02-28T02:08:23.568Z,98992.88
2023-02-28T02:10:54.997Z,98997.59
2023-02-28T02:13:36.185Z,98990.28
2023-02-28T02:16:14.004Z,98987.84
2023-02-28T02:18:47.152Z,98991.56
2023-02-28T02:21:57.101Z,98990.94
2023-02-28T02:25:00.825Z,98986.72
2023-02-28T02:27:41.356Z,98974.91
2023-02-28T02:30:29.247Z,98976.53
2023-02-28T02:33:25.080Z,98978.28
2023-02-28T02:35:59.296Z,98980.72
2023-02-28T02:38:42.119Z,98976.91
2023-02-28T02:41:19.155Z,98980.06
2023-02-28T02:43:50.360Z,98978.63
2023-02-28T02:46:22.389Z,98977.22
2023-02-28T02:48:51.642Z,98975.38
2023-02-28T02:51:25.286Z,98967.94
2023-02-28T02:53:57.766Z,98982.44
2023-02-28T02:56:28.577Z,98979.34
2023-02-28T02:59:01.077Z,98984.13
2023-02-28T03:01:31.543Z,98982.22
2023-02-28T03:04:03.339Z,98977.34
2023-02-28T03:06:33.634Z,98979.94
2023-02-28T03:09:03.171Z,98984.78
2023-02-28T03:11:31.940Z,98988.03
2023-02-28T03:14:32.718Z,98978.63
2023-02-28T03:17:16.187Z,98984.47
2023-02-28T03:19:53.818Z,98978.88
2023-02-28T03:22:36.718Z,98982.69
2023-02-28T03:25:09.521Z,98984.78
2023-02-28T03:27:42.513Z,98979.94
2023-02-28T03:30:18.016Z,98988.53
2023-02-28T03:32:55.088Z,98984.78
2023-02-28T03:35:25.600Z,98986.31
2023-02-28T03:38:03.216Z,98986.75
2023-02-28T03:40:35.314Z,98986.91
2023-02-28T03:43:06.858Z,98983.81
2023-02-28T03:45:37.714Z,98985.69
2023-02-28T03:48:11.925Z,98992.09
2023-02-28T03:50:42.399Z,98986.50
2023-02-28T03:53:16.193Z,98985.28
2023-02-28T03:55:46.688Z,98986.41
2023-02-28T03:58:21.611Z,98996.44
2023-02-28T04:00:54.622Z,98989.25
2023-02-28T04:03:22.263Z,98995.00
2023-02-28T04:05:53.328Z,98989.19
2023-02-28T04:08:23.652Z,98998.25
2023-02-28T04:10:58.755Z,99000.50
2023-02-28T04:13:26.381Z,98991.75
2023-02-28T04:15:54.080Z,98998.78
2023-02-28T04:18:21.771Z,98996.78
2023-02-28T04:20:49.486Z,99001.16
2023-02-28T04:23:17.121Z,98993.88
2023-02-28T04:25:46.099Z,98999.22
2023-02-28T04:28:13.773Z,98995.00
2023-02-28T04:30:41.582Z,98992.66
2023-02-28T04:33:09.391Z,98994.53
2023-02-28T04:35:37.100Z,98998.66
2023-02-28T04:38:04.826Z,98989.31
2023-02-28T04:40:32.474Z,98992.56
2023-02-28T04:43:01.487Z,98993.72
2023-02-28T04:45:31.117Z,98994.69
2023-02-28T04:47:58.811Z,98992.91
2023-02-28T04:50:26.509Z,98995.50
2023-02-28T04:52:54.144Z,98996.78
2023-02-28T04:55:21.844Z,98990.28
2023-02-28T04:57:49.528Z,98989.31
2023-02-28T05:00:19.387Z,98986.16
2023-02-28T05:02:47.040Z,98987.22
2023-02-28T05:05:19.044Z,98997.50
2023-02-28T05:07:46.991Z,99002.13
2023-02-28T05:10:14.626Z,98997.75
2023-02-28T05:12:42.521Z,99003.75
2023-02-28T05:15:14.390Z,98993.53
2023-02-28T05:17:43.598Z,99007.47
2023-02-28T05:20:15.679Z,99001.66
2023-02-28T05:22:44.175Z,99007.47
2023-02-28T05:25:14.474Z,99006.34
2023-02-28T05:27:42.121Z,99006.81
2023-02-28T05:30:13.262Z,99009.09
2023-02-28T05:32:43.741Z,99012.25
2023-02-28T05:35:13.291Z,99009.59
2023-02-28T05:37:41.449Z,99014.47
2023-02-28T05:40:11.238Z,99009.59
2023-02-28T05:42:39.336Z,99014.94
2023-02-28T05:45:08.917Z,99011.38
2023-02-28T05:47:37.255Z,99005.94
2023-02-28T05:50:05.644Z,99012.84
2023-02-28T05:52:34.635Z,99008.63
2023-02-28T05:55:02.263Z,99011.06
2023-02-28T05:57:30.213Z,99006.81
2023-02-28T05:59:58.121Z,99017.13
2023-02-28T06:02:26.221Z,99022.25
2023-02-28T06:04:54.174Z,99011.53
2023-02-28T06:07:23.515Z,99013.97
2023-02-28T06:09:52.818Z,99021.75
2023-02-28T06:12:20.648Z,99025.00
2023-02-28T06:14:48.531Z,99025.00
2023-02-28T06:17:16.372Z,99022.38
2023-02-28T06:19:44.391Z,99029.94
2023-02-28T06:22:12.039Z,99019.09
2023-02-28T06:24:39.705Z,99028.41
2023-02-28T06:27:08.685Z,99028.88
2023-02-28T06:29:37.158Z,99028.88
2023-02-28T06:32:04.971Z,99040.53
2023-02-28T06:34:32.774Z,99028.88
2023-02-28T06:37:03.108Z,99034.38
2023-02-28T06:39:30.909Z,99033.91
2023-02-28T06:41:58.847Z,99045.34
2023-02-28T06:44:27.942Z,99043.63
2023-02-28T06:46:55.658Z,99052.88
2023-02-28T06:49:23.423Z,99046.88
2023-02-28T06:51:51.123Z,99053.03
2023-02-28T06:54:19.026Z,99052.31
2023-02-28T06:56:47.795Z,99047.34
2023-02-28T06:59:15.509Z,99048.47
2023-02-28T07:01:45.051Z,99049.59
2023-02-28T07:04:14.133Z,99056.59
2023-02-28T07:06:41.943Z,99047.13
2023-02-28T07:09:11.636Z,99057.00
2023-02-28T07:11:39.486Z,99063.59
2023-02-28T07:14:07.182Z,99066.66
2023-02-28T07:16:35.147Z,99063.47
2023-02-28T07:19:04.252Z,99065.22
2023-02-28T07:21:32.169Z,99068.84
2023-02-28T07:24:00.155Z,99066.22
2023-02-28T07:26:27.929Z,99075.00
2023-02-28T07:28:55.642Z,99071.16
2023-02-28T07:31:23.564Z,99076.31
2023-02-28T07:33:51.414Z,99075.19
2023-02-28T07:36:20.635Z,99074.09
2023-02-28T07:38:50.961Z,99068.81
2023-02-28T07:41:20.082Z,99074.50
2023-02-28T07:43:48.411Z,99075.81
2023-02-28T07:46:19.115Z,99074.41
2023-02-28T07:48:47.170Z,99076.53
2023-02-28T07:51:15.083Z,99073.00
2023-02-28T07:53:44.276Z,99075.84
2023-02-28T07:56:12.538Z,99068.41
2023-02-28T07:58:40.242Z,99079.59
2023-02-28T08:01:09.097Z,99075.34
2023-02-28T08:03:37.676Z,99075.97
2023-02-28T08:06:06.131Z,99074.09
2023-02-28T08:08:34.183Z,99080.88
2023-02-28T08:11:04.727Z,99068.66
2023-02-28T08:13:32.629Z,99067.56
2023-02-28T08:16:00.540Z,99074.50
2023-02-28T08:18:28.186Z,99072.44
2023-02-28T08:20:55.874Z,99065.50
2023-02-28T08:23:23.582Z,99077.88
2023-02-28T08:25:55.713Z,99082.28
2023-02-28T08:28:27.128Z,99084.06
2023-02-28T08:30:55.730Z,99080.66
2023-02-28T08:33:23.840Z,99077.28
2023-02-28T08:35:55.709Z,99078.38
2023-02-28T08:38:23.830Z,99074.44
2023-02-28T08:40:51.689Z,99075.03
2023-02-28T08:43:19.385Z,99078.69
2023-02-28T08:45:48.435Z,99065.38
2023-02-28T08:48:18.096Z,99076.13
2023-02-28T08:50:55.783Z,99076.13
2023-02-28T08:53:33.096Z,99087.69
2023-02-28T08:56:01.677Z,99078.84
2023-02-28T08:58:29.745Z,99071.28
2023-02-28T09:00:59.172Z,99077.22
2023-02-28T09:03:27.938Z,99069.94
2023-02-28T09:06:00.719Z,99066.69
2023-02-28T09:08:31.195Z,99072.25
2023-02-28T09:11:00.656Z,99067.25
2023-02-28T09:13:29.654Z,99063.91
2023-02-28T09:15:59.584Z,99074.97
2023-02-28T09:18:27.887Z,99073.50
2023-02-28T09:20:56.044Z,99069.34
2023-02-28T09:23:24.017Z,99069.94
2023-02-28T09:25:54.088Z,99066.34
2023-02-28T09:28:22.891Z,99066.09
2023-02-28T09:30:52.001Z,99066.09
2023-02-28T09:33:22.136Z,99074.16
2023-02-28T09:35:50.492Z,99072.03
2023-02-28T09:38:19.444Z,99080.09
2023-02-28T09:40:52.730Z,99071.09
2023-02-28T09:43:23.954Z,99068.81
2023-02-28T09:45:59.613Z,99072.44
2023-02-28T09:48:33.800Z,99084.81
2023-02-28T09:51:04.931Z,99068.91
2023-02-28T09:53:35.110Z,99069.78
2023-02-28T09:56:06.436Z,99079.88
2023-02-28T09:58:40.449Z,99072.88
2023-02-28T10:01:14.246Z,99076.09
2023-02-28T10:03:48.312Z,99085.50
2023-02-28T10:06:19.879Z,99069.59
2023-02-28T10:08:58.510Z,99070.91
2023-02-28T10:11:28.399Z,99070.06
2023-02-28T10:14:02.546Z,99067.34
2023-02-28T10:16:35.683Z,99073.31
2023-02-28T10:19:08.996Z,99074.31
2023-02-28T10:21:40.842Z,99075.28
2023-02-28T10:24:22.067Z,99065.72
2023-02-28T10:26:50.186Z,99073.16
2023-02-28T10:29:18.138Z,99079.88
2023-02-28T10:31:45.955Z,99065.00
2023-02-28T10:34:15.598Z,99068.97
2023-02-28T10:36:45.137Z,99065.88
2023-02-28T10:39:38.677Z,99068.72
2023-02-28T10:42:06.633Z,99061.25
2023-02-28T10:44:34.377Z,99060.91
2023-02-28T10:47:02.266Z,99064.13
2023-02-28T10:49:31.653Z,99067.78
2023-02-28T10:52:01.687Z,99055.53
2023-02-28T10:54:32.696Z,99057.88
2023-02-28T10:57:16.928Z,99067.63
2023-02-28T10:59:45.261Z,99065.94
2023-02-28T11:05:27.872Z,99064.50
2023-02-28T11:07:57.562Z,99062.09
2023-02-28T11:10:28.701Z,99057.38
2023-02-28T11:13:00.541Z,99064.91
2023-02-28T11:15:31.861Z,99064.72
2023-02-28T11:18:02.558Z,99062.94
2023-02-28T11:20:34.309Z,99058.50
2023-02-28T11:23:04.517Z,99051.41
2023-02-28T11:25:34.672Z,99055.91
2023-02-28T11:28:05.638Z,99062.84
2023-02-28T11:30:36.922Z,99060.59
2023-02-28T11:33:23.546Z,99059.13
2023-02-28T11:35:54.642Z,99056.34
2023-02-28T11:38:22.393Z,99056.94
2023-02-28T11:41:04.747Z,99058.41
2023-02-28T11:44:00.985Z,99049.94
2023-02-28T11:46:35.804Z,99047.44
2023-02-28T11:49:15.198Z,99045.03
2023-02-28T11:51:51.027Z,99048.53
2023-02-28T11:54:37.497Z,99033.09
2023-02-28T11:57:18.036Z,99027.13
2023-02-28T11:59:58.788Z,99039.38
2023-02-28T12:02:30.549Z,99040.28
2023-02-28T12:05:16.226Z,99049.06
2023-02-28T12:07:58.424Z,99043.56
2023-02-28T12:10:28.634Z,99043.41
2023-02-28T12:13:13.988Z,99048.94
2023-02-28T12:16:20.139Z,99042.31
2023-02-28T12:19:01.920Z,99029.97
2023-02-28T12:21:42.392Z,99025.28
2023-02-28T12:24:42.498Z,99025.91
2023-02-28T12:27:14.704Z,99021.44
2023-02-28T12:29:49.953Z,99021.97
2023-02-28T12:32:23.741Z,99019.00
2023-02-28T12:34:57.034Z,99020.84
2023-02-28T12:37:31.610Z,99008.81
2023-02-28T12:40:07.509Z,99009.56
2023-02-28T12:42:41.837Z,99004.81
2023-02-28T12:45:14.768Z,99009.69
2023-02-28T12:47:46.830Z,99012.25
2023-02-28T12:50:15.626Z,99002.72
2023-02-28T12:52:55.014Z,99014.94
2023-02-28T12:55:31.950Z,99014.47
2023-02-28T12:58:10.437Z,99005.81
2023-02-28T13:00:45.828Z,99001.31
2023-02-28T13:03:39.250Z,99006.72
2023-02-28T13:06:51.508Z,99006.94
2023-02-28T13:09:20.493Z,99007.06
2023-02-28T13:11:52.013Z,98999.66
2023-02-28T13:14:27.417Z,99007.13
2023-02-28T13:17:04.757Z,99006.13
2023-02-28T13:19:35.588Z,99007.81
2023-02-28T13:22:04.973Z,99019.63
2023-02-28T13:24:43.280Z,99004.78
2023-02-28T13:27:41.418Z,99004.00
2023-02-28T13:30:46.501Z,99001.78
2023-02-28T13:33:25.186Z,98994.34
2023-02-28T13:36:10.052Z,99003.69
2023-02-28T13:38:43.000Z,99005.16
2023-02-28T13:41:48.636Z,98999.13
2023-02-28T13:44:20.212Z,99004.50
2023-02-28T13:47:24.021Z,99004.66
2023-02-28T13:49:53.452Z,99000.03
2023-02-28T13:52:25.517Z,98996.31
2023-02-28T13:55:20.004Z,98990.47
2023-02-28T13:58:05.573Z,98997.06
2023-02-28T14:00:46.001Z,99006.69
2023-02-28T14:03:30.841Z,99000.13
2023-02-28T14:06:20.083Z,98989.13
2023-02-28T14:08:55.995Z,98993.66
2023-02-28T14:11:30.183Z,98990.31
2023-02-28T14:13:57.928Z,98982.56
2023-02-28T14:16:30.997Z,98989.72
2023-02-28T14:19:02.595Z,98992.50
2023-02-28T14:21:32.988Z,98989.50
2023-02-28T14:24:34.545Z,98989.84
2023-02-28T14:27:13.860Z,98984.97
2023-02-28T14:30:22.348Z,98991.06
2023-02-28T14:32:56.619Z,98984.56
2023-02-28T14:35:45.597Z,98979.13
2023-02-28T14:38:19.955Z,98980.13
2023-02-28T14:40:49.780Z,98985.97
2023-02-28T14:43:23.754Z,98985.41
2023-02-28T14:45:53.538Z,98993.16
2023-02-28T14:48:26.068Z,98985.03
2023-02-28T14:50:55.986Z,98976.53
2023-02-28T14:53:26.982Z,98975.44
2023-02-28T14:55:55.003Z,98980.72
2023-02-28T14:58:27.116Z,98966.84
2023-02-28T15:00:56.967Z,98978.47
2023-02-28T15:03:32.744Z,98976.63
2023-02-28T15:06:02.162Z,98969.31
2023-02-28T15:08:32.777Z,98971.69
2023-02-28T15:11:03.918Z,98969.69
2023-02-28T15:13:38.673Z,98971.88
2023-02-28T15:16:12.119Z,98975.34
2023-02-28T15:18:49.080Z,98970.59
2023-02-28T15:21:20.227Z,98970.06
2023-02-28T15:23:51.631Z,98969.59
2023-02-28T15:26:22.914Z,98975.38
2023-02-28T15:28:53.333Z,98978.25
2023-02-28T15:31:25.518Z,98987.50
2023-02-28T15:33:59.246Z,98986.19
2023-02-28T15:36:29.791Z,98979.63
2023-02-28T15:39:10.528Z,98974.66
2023-02-28T15:41:43.320Z,98974.16
2023-02-28T15:44:28.026Z,98971.91
2023-02-28T15:46:59.430Z,98979.75
2023-02-28T15:49:29.997Z,98978.38
2023-02-28T15:52:01.601Z,98984.59
2023-02-28T15:54:32.601Z,98970.88
2023-02-28T15:57:07.223Z,98981.69
2023-02-28T15:59:34.943Z,98984.03
2023-02-28T16:02:16.680Z,98987.78
2023-02-28T16:05:00.245Z,98982.56
2023-02-28T16:07:28.510Z,98981.78
2023-02-28T16:09:56.747Z,98980.13
2023-02-28T16:12:28.738Z,98987.66
2023-02-28T16:14:58.792Z,98991.16
2023-02-28T16:17:28.766Z,98995.88
2023-02-28T16:19:59.077Z,98995.69
2023-02-28T16:22:27.117Z,98997.13
2023-02-28T16:24:54.855Z,98998.72
2023-02-28T16:27:27.028Z,99000.69
2023-02-28T16:29:55.499Z,99014.16
2023-02-28T16:32:23.256Z,99001.22
2023-02-28T16:34:50.948Z,99003.69
2023-02-28T16:37:20.434Z,99010.50
2023-02-28T16:39:49.761Z,99015.63
2023-02-28T16:42:30.426Z,99016.13
2023-02-28T16:44:58.878Z,99005.91
2023-02-28T16:47:27.657Z,99022.41
2023-02-28T16:49:55.309Z,99026.97
2023-02-28T16:52:24.332Z,99029.22
2023-02-28T16:54:52.033Z,99034.88
2023-02-28T16:57:23.992Z,99030.03
2023-02-28T16:59:52.448Z,99030.88
2023-02-28T17:02:21.651Z,99041.13
2023-02-28T17:04:49.632Z,99046.00
2023-02-28T17:07:18.586Z,99046.56
2023-02-28T17:09:47.961Z,99046.84
2023-02-28T17:12:15.622Z,99047.66
2023-02-28T17:14:43.358Z,99056.84
2023-02-28T17:17:18.285Z,99061.41
2023-02-28T17:19:46.396Z,99068.38
2023-02-28T17:22:14.482Z,99061.16
2023-02-28T17:24:42.171Z,99065.47
2023-02-28T17:27:14.269Z,99064.97
2023-02-28T17:29:42.668Z,99071.44
2023-02-28T17:32:17.900Z,99073.06
2023-02-28T17:34:46.891Z,99079.53
2023-02-28T17:37:14.924Z,99078.78
2023-02-28T17:39:42.582Z,99078.25
2023-02-28T17:42:10.233Z,99083.38
2023-02-28T17:44:39.603Z,99089.84
2023-02-28T17:47:07.350Z,99083.38
2023-02-28T17:49:35.173Z,99087.69
2023-02-28T17:52:02.815Z,99081.78
2023-02-28T17:54:30.457Z,99089.06
2023-02-28T17:56:58.073Z,99088.78
2023-02-28T17:59:26.493Z,99082.31
2023-02-28T18:01:55.524Z,99085.53
2023-02-28T18:04:23.134Z,99083.94
2023-02-28T18:06:52.323Z,99096.88
2023-02-28T18:09:22.620Z,99089.88
2023-02-28T18:11:51.033Z,99099.03
2023-02-28T18:14:20.131Z,99097.94
2023-02-28T18:16:47.904Z,99114.41
2023-02-28T18:19:17.625Z,99107.38
2023-02-28T18:21:46.474Z,99104.41
2023-02-28T18:24:14.559Z,99099.59
2023-02-28T18:26:43.537Z,99102.78
2023-02-28T18:29:17.972Z,99106.03
2023-02-28T18:31:45.706Z,99103.91
2023-02-28T18:34:13.470Z,99100.13
2023-02-28T18:36:42.967Z,99103.91
2023-02-28T18:39:12.018Z,99096.88
2023-02-28T18:41:40.188Z,99102.28
2023-02-28T18:44:18.909Z,99094.47
2023-02-28T18:46:47.093Z,99099.56
2023-02-28T18:49:14.885Z,99084.22
2023-02-28T18:51:45.412Z,99085.56
2023-02-28T18:54:13.505Z,99086.91
2023-02-28T18:56:41.274Z,99091.72
2023-02-28T18:59:09.065Z,99086.91
2023-02-28T19:01:36.785Z,99095.78
2023-02-28T19:04:06.496Z,99092.28
2023-02-28T19:06:35.333Z,99084.47
2023-02-28T19:09:05.171Z,99092.03
2023-02-28T19:11:35.650Z,99085.53
2023-02-28T19:14:04.154Z,99090.94
2023-02-28T19:16:32.453Z,99087.69
2023-02-28T19:19:00.496Z,99099.53
2023-02-28T19:21:28.346Z,99090.91
2023-02-28T19:23:56.035Z,99093.63
2023-02-28T19:26:26.967Z,99082.28
2023-02-28T19:28:54.683Z,99083.91
2023-02-28T19:31:24.376Z,99087.13
2023-02-28T19:33:53.150Z,99087.13
2023-02-28T19:36:21.627Z,99091.41
2023-02-28T19:38:49.346Z,99086.56
2023-02-28T19:41:18.775Z,99082.81
2023-02-28T19:43:48.286Z,99082.25
2023-02-28T19:46:16.216Z,99086.03
2023-02-28T19:48:44.943Z,99088.75
2023-02-28T19:51:14.733Z,99082.81
2023-02-28T19:53:43.700Z,99086.53
2023-02-28T19:56:12.298Z,99081.13
2023-02-28T19:58:40.785Z,99091.84
2023-02-28T20:01:12.396Z,99081.59
2023-02-28T20:03:40.773Z,99075.69
2023-02-28T20:06:11.120Z,99081.06
2023-02-28T20:08:39.502Z,99079.97
2023-02-28T20:11:08.945Z,99080.81
2023-02-28T20:13:37.151Z,99081.06
2023-02-28T20:16:08.917Z,99082.16
2023-02-28T20:18:38.553Z,99079.97
2023-02-28T20:21:09.072Z,99073.53
2023-02-28T20:23:38.846Z,99078.84
2023-02-28T20:26:07.009Z,99075.09
2023-02-28T20:28:34.736Z,99077.25
2023-02-28T20:31:02.748Z,99073.47
2023-02-28T20:33:30.547Z,99076.09
2023-02-28T20:36:02.008Z,99069.41
2023-02-28T20:38:30.103Z,99070.16
2023-02-28T20:41:00.322Z,99077.16
2023-02-28T20:43:28.822Z,99073.38
2023-02-28T20:45:58.289Z,99069.59
2023-02-28T20:48:26.721Z,99084.16
2023-02-28T20:50:56.122Z,99077.38
2023-02-28T20:53:26.717Z,99072.28
2023-02-28T20:55:55.517Z,99074.41
2023-02-28T20:58:24.722Z,99072.22
2023-02-28T21:00:52.678Z,99077.66
2023-02-28T21:03:20.413Z,99068.78
2023-02-28T21:05:48.206Z,99059.94
2023-02-28T21:08:15.942Z,99062.59
2023-02-28T21:10:45.019Z,99068.47
2023-02-28T21:13:12.728Z,99066.34
2023-02-28T21:15:40.439Z,99072.78
2023-02-28T21:18:08.186Z,99066.34
2023-02-28T21:20:35.899Z,99071.69
2023-02-28T21:23:03.660Z,99073.84
2023-02-28T21:25:31.703Z,99068.22
2023-02-28T21:28:00.794Z,99073.84
2023-02-28T21:30:28.658Z,99071.09
2023-02-28T21:32:58.347Z,99073.22
2023-02-28T21:35:26.598Z,99072.13
2023-02-28T21:37:55.099Z,99072.66
2023-02-28T21:40:22.802Z,99071.59
2023-02-28T21:42:50.563Z,99080.72
2023-02-28T21:45:19.706Z,99080.66
2023-02-28T21:47:47.436Z,99081.69
2023-02-28T21:50:15.332Z,99085.50
2023-02-28T21:52:44.988Z,99088.47
2023-02-28T21:55:12.783Z,99077.94
2023-02-28T21:57:40.725Z,99080.66
2023-02-28T22:00:11.087Z,99072.06
2023-02-28T22:02:40.199Z,99081.69
2023-02-28T22:05:08.110Z,99075.25
2023-02-28T22:07:35.757Z,99080.06
2023-02-28T22:10:03.847Z,99073.97
2023-02-28T22:12:31.709Z,99080.66
2023-02-28T22:14:59.518Z,99073.97
2023-02-28T22:17:27.280Z,99078.03
2023-02-28T22:19:56.364Z,99076.97
2023-02-28T22:22:24.053Z,99076.06
2023-02-28T22:24:51.708Z,99072.00
2023-02-28T22:27:19.378Z,99074.44
2023-02-28T22:29:48.002Z,99081.06
2023-02-28T22:32:16.505Z,99080.50
2023-02-28T22:34:44.270Z,99081.78
2023-02-28T22:37:13.332Z,99087.00
2023-02-28T22:39:41.196Z,99089.63
2023-02-28T22:42:09.718Z,99088.63
2023-02-28T22:44:37.569Z,99078.31
2023-02-28T22:47:05.395Z,99082.66
2023-02-28T22:49:33.070Z,99076.75
2023-02-28T22:52:00.698Z,99066.25
2023-02-28T22:54:29.787Z,99075.59
2023-02-28T22:56:57.539Z,99066.03
2023-02-28T22:59:25.205Z,99062.13
2023-02-28T23:01:56.126Z,99076.31
2023-02-28T23:04:26.908Z,99075.91
2023-02-28T23:06:54.633Z,99074.09
2023-02-28T23:09:22.300Z,99078.72
2023-02-28T23:11:51.943Z,99071.75
2023-02-28T23:14:21.451Z,99073.91
2023-02-28T23:16:50.974Z,99073.03
2023-02-28T23:19:21.944Z,99084.53
2023-02-28T23:21:50.432Z,99081.84
2023-02-28T23:24:20.020Z,99076.03
2023-02-28T23:26:50.236Z,99075.91
2023-02-28T23:29:22.028Z,99083.94
2023-02-28T23:31:50.062Z,99086.66
2023-02-28T23:34:26.180Z,99080.69
2023-02-28T23:36:55.010Z,99083.41
2023-02-28T23:39:23.006Z,99093.06
2023-02-28T23:41:50.876Z,99090.88
2023-02-28T23:44:19.937Z,99089.66
2023-02-28T23:46:49.381Z,99084.09
2023-02-28T23:49:19.902Z,99081.56
2023-02-28T23:51:48.880Z,99081.63
2023-02-28T23:54:17.355Z,99074.72
2023-02-28T23:56:45.292Z,99069.34
2023-02-28T23:59:13.076Z,99070.91
